Time;durP1;ratioP1;P1;durP2;ratioP2;P2;SDS_P1;SDS_P2;PMS_P1;PMS_P2;Temp;Humidity;BMP_temperature;BMP_pressure;BME280_temperature;BME280_humidity;BME280_pressure;Samples;Min_cycle;Max_cycle;Signal;HPM_P1;HPM_P2
2024/01/03 00:02:25;;;;;;;0.90;0.60;;;;;;;9.53;79.50;96301.47;4993186;28;20229;-74
2024/01/03 00:04:52;;;;;;;0.60;0.50;;;;;;;9.60;78.48;96312.97;4992913;28;20207;-73
2024/01/03 00:07:18;;;;;;;0.50;0.50;;;;;;;9.55;79.41;96315.56;4995240;28;20229;-73
2024/01/03 00:09:46;;;;;;;1.10;0.60;;;;;;;9.31;81.51;96304.00;4992806;28;20223;-73
2024/01/03 00:12:22;;;;;;;1.33;0.70;;;;;;;9.16;82.30;96295.53;4991025;28;20209;-73
2024/01/03 00:14:49;;;;;;;1.67;0.65;;;;;;;9.16;81.97;96304.47;4992635;28;20198;-73
2024/01/03 00:17:16;;;;;;;1.30;0.60;;;;;;;8.97;82.87;96297.56;4991824;28;20277;-74
2024/01/03 00:19:43;;;;;;;0.60;0.60;;;;;;;8.96;83.30;96296.75;4976022;28;20286;-74
2024/01/03 00:22:11;;;;;;;0.88;0.63;;;;;;;9.04;81.79;96277.50;4991213;28;20208;-74
2024/01/03 00:24:48;;;;;;;1.40;0.70;;;;;;;9.01;80.58;96274.44;4991863;28;20576;-73
2024/01/03 00:27:15;;;;;;;1.17;0.60;;;;;;;9.02;80.19;96278.78;4989878;28;20199;-74
2024/01/03 00:29:52;;;;;;;0.73;0.60;;;;;;;9.08;79.54;96277.84;4993297;28;20218;-74
2024/01/03 00:32:20;;;;;;;0.80;0.80;;;;;;;9.12;79.36;96278.19;4999253;28;20226;-74
2024/01/03 00:34:46;;;;;;;1.77;0.80;;;;;;;9.23;78.61;96274.66;4993295;28;20576;-73
2024/01/03 00:37:23;;;;;;;0.80;0.70;;;;;;;9.23;77.63;96278.16;4991740;28;20218;-74
2024/01/03 00:39:51;;;;;;;1.05;0.70;;;;;;;9.24;76.73;96276.28;4991439;28;20205;-74
2024/01/03 00:42:18;;;;;;;1.48;0.70;;;;;;;9.34;76.21;96255.75;5006583;28;20213;-74
2024/01/03 00:44:44;;;;;;;1.38;0.80;;;;;;;9.31;75.39;96267.00;4992450;28;20200;-74
2024/01/03 00:47:11;;;;;;;2.42;1.15;;;;;;;9.33;75.06;96267.59;4992149;28;20265;-74
2024/01/03 00:49:38;;;;;;;1.25;0.90;;;;;;;9.41;74.12;96251.03;4992089;28;20227;-73
2024/01/03 00:52:05;;;;;;;1.88;0.90;;;;;;;9.50;73.53;96269.53;4992208;28;20204;-74
2024/01/03 00:54:32;;;;;;;3.42;0.80;;;;;;;9.44;73.36;96285.63;4993603;28;20226;-74
2024/01/03 00:57:00;;;;;;;2.08;1.13;;;;;;;9.50;72.01;96283.88;4991197;28;20204;-74
2024/01/03 00:59:27;;;;;;;1.92;1.00;;;;;;;9.57;71.69;96291.84;4991972;28;20522;-74
2024/01/03 01:01:55;;;;;;;2.95;1.00;;;;;;;9.64;71.50;96290.66;4991751;28;20286;-74
2024/01/03 01:04:23;;;;;;;1.60;0.98;;;;;;;9.77;70.71;96300.34;5007125;28;20206;-73
2024/01/03 01:06:50;;;;;;;3.00;1.00;;;;;;;9.78;70.31;96302.81;4991718;28;20195;-74
2024/01/03 01:09:16;;;;;;;2.83;1.48;;;;;;;9.86;69.76;96317.00;4989834;28;20207;-74
2024/01/03 01:11:42;;;;;;;2.40;1.25;;;;;;;9.93;69.67;96318.50;4989267;28;20213;-74
2024/01/03 01:14:10;;;;;;;3.72;0.98;;;;;;;10.00;69.43;96308.38;4991835;28;20704;-74
2024/01/03 01:16:37;;;;;;;2.28;1.25;;;;;;;9.98;69.83;96307.81;4992227;28;20207;-74
2024/01/03 01:19:05;;;;;;;2.05;0.90;;;;;;;9.96;69.38;96325.31;4992336;28;20214;-73
2024/01/03 01:21:34;;;;;;;1.80;0.80;;;;;;;9.91;69.70;96309.81;4990679;28;20206;-74
2024/01/03 01:24:00;;;;;;;1.30;0.93;;;;;;;9.86;70.18;96298.91;4989278;28;20564;-74
2024/01/03 01:26:27;;;;;;;2.47;1.00;;;;;;;9.81;70.83;96308.78;4991109;28;20660;-74
2024/01/03 01:28:53;;;;;;;2.40;1.05;;;;;;;9.80;70.59;96307.97;4992899;28;20207;-74
2024/01/03 01:31:21;;;;;;;1.60;0.90;;;;;;;9.79;71.03;96322.53;4989592;28;20219;-74
2024/01/03 01:33:48;;;;;;;1.27;0.77;;;;;;;9.82;70.99;96313.97;4989886;28;20215;-74
2024/01/03 01:36:15;;;;;;;1.55;0.93;;;;;;;9.80;71.03;96326.06;4991817;28;20233;-73
2024/01/03 01:38:41;;;;;;;1.65;0.90;;;;;;;9.86;71.07;96319.69;4990157;28;20209;-74
2024/01/03 01:41:08;;;;;;;1.35;0.80;;;;;;;9.83;70.88;96323.69;4989831;28;20278;-74
2024/01/03 01:43:35;;;;;;;1.52;0.80;;;;;;;9.72;71.43;96316.47;5006233;28;20202;-74
2024/01/03 01:46:01;;;;;;;1.55;0.98;;;;;;;9.74;71.43;96308.94;4990459;28;20205;-74
2024/01/03 01:48:29;;;;;;;1.23;0.90;;;;;;;9.82;71.05;96338.28;4991749;28;20202;-74
2024/01/03 01:50:56;;;;;;;1.83;0.85;;;;;;;9.73;71.26;96324.34;4991714;28;20230;-74
2024/01/03 01:53:23;;;;;;;1.85;0.93;;;;;;;9.77;71.26;96325.47;4990245;28;20218;-74
2024/01/03 01:55:49;;;;;;;2.58;0.98;;;;;;;9.67;71.76;96328.00;4988818;28;20314;-74
2024/01/03 01:58:16;;;;;;;3.90;0.98;;;;;;;9.61;72.37;96344.31;4991555;28;20218;-74
2024/01/03 02:00:42;;;;;;;1.30;0.77;;;;;;;9.57;72.24;96335.88;4983609;28;20226;-74
2024/01/03 02:03:10;;;;;;;2.88;1.00;;;;;;;9.61;72.28;96347.03;5022341;28;20287;-74
2024/01/03 02:05:38;;;;;;;1.38;1.27;;;;;;;9.57;72.33;96348.56;4999268;28;20213;-74
2024/01/03 02:08:06;;;;;;;2.75;1.13;;;;;;;9.58;72.12;96350.19;4991134;28;20195;-75
2024/01/03 02:10:32;;;;;;;2.28;1.20;;;;;;;9.66;72.34;96333.63;4990636;28;20229;-74
2024/01/03 02:12:59;;;;;;;1.42;0.73;;;;;;;9.64;72.40;96336.56;4973574;28;20210;-74
2024/01/03 02:15:27;;;;;;;1.70;1.10;;;;;;;9.60;72.61;96330.00;4989361;28;20207;-75
2024/01/03 02:17:54;;;;;;;2.35;0.80;;;;;;;9.56;72.69;96333.41;4983245;28;20203;-74
2024/01/03 02:20:21;;;;;;;2.30;1.25;;;;;;;9.41;73.32;96334.75;5005171;28;20207;-74
2024/01/03 02:22:49;;;;;;;1.88;1.00;;;;;;;9.42;73.42;96340.97;4990679;28;20195;-75
2024/01/03 02:25:15;;;;;;;3.42;0.90;;;;;;;9.42;73.51;96322.84;5005880;28;20203;-74
2024/01/03 02:27:42;;;;;;;1.45;0.68;;;;;;;9.41;73.25;96315.00;4990347;28;20199;-74
2024/01/03 02:30:09;;;;;;;1.45;0.70;;;;;;;9.43;73.20;96329.91;4988370;28;20693;-74
2024/01/03 02:32:36;;;;;;;2.00;0.90;;;;;;;9.35;73.43;96319.47;4990918;28;20199;-74
2024/01/03 02:35:04;;;;;;;0.90;0.77;;;;;;;9.29;73.48;96317.72;4973843;28;20568;-74
2024/01/03 02:37:31;;;;;;;1.63;0.60;;;;;;;9.30;73.48;96319.38;4990851;28;20652;-74
2024/01/03 02:39:59;;;;;;;1.35;0.88;;;;;;;9.30;73.55;96315.84;5005001;28;20321;-74
2024/01/03 02:42:25;;;;;;;1.17;0.68;;;;;;;9.32;73.09;96338.03;5022541;28;20214;-74
2024/01/03 02:44:52;;;;;;;1.20;0.90;;;;;;;9.31;72.82;96322.88;4988677;28;20631;-74
2024/01/03 02:47:18;;;;;;;0.70;0.60;;;;;;;9.38;72.78;96334.38;4989484;28;20209;-74
2024/01/03 02:49:45;;;;;;;0.70;0.60;;;;;;;9.39;72.64;96325.22;4989904;28;20273;-74
2024/01/03 02:52:11;;;;;;;1.75;0.50;;;;;;;9.33;72.88;96329.69;4989873;28;20215;-74
2024/01/03 02:54:38;;;;;;;0.70;0.50;;;;;;;9.31;73.22;96325.59;5005952;28;20294;-74
2024/01/03 02:57:06;;;;;;;3.25;0.88;;;;;;;9.28;73.48;96326.88;4988827;28;20656;-75
2024/01/03 02:59:34;;;;;;;1.95;0.75;;;;;;;9.29;73.61;96320.41;4988660;28;20203;-74
2024/01/03 03:02:00;;;;;;;1.60;0.60;;;;;;;9.19;73.88;96322.88;4991504;28;20568;-74
2024/01/03 03:04:27;;;;;;;0.65;0.60;;;;;;;9.26;73.71;96329.00;4990379;28;20203;-74
2024/01/03 03:06:53;;;;;;;1.02;0.70;;;;;;;9.27;73.32;96313.63;4990618;28;20199;-74
2024/01/03 03:09:20;;;;;;;0.70;0.60;;;;;;;9.26;73.39;96326.28;5000361;28;20208;-75
2024/01/03 03:11:47;;;;;;;1.02;0.50;;;;;;;9.24;73.25;96324.88;4983226;28;20245;-74
2024/01/03 03:14:15;;;;;;;0.70;0.40;;;;;;;9.18;73.84;96321.25;4990444;28;20200;-74
2024/01/03 03:16:42;;;;;;;0.70;0.50;;;;;;;9.14;74.29;96324.63;4991565;28;20214;-74
2024/01/03 03:19:08;;;;;;;0.70;0.50;;;;;;;9.13;74.53;96321.13;4988526;28;21244;-74
2024/01/03 03:21:35;;;;;;;1.05;0.50;;;;;;;9.06;75.08;96329.38;4989379;28;20242;-74
2024/01/03 03:24:02;;;;;;;1.00;0.60;;;;;;;9.05;75.28;96318.81;4990589;28;20290;-75
2024/01/03 03:26:28;;;;;;;0.90;0.50;;;;;;;9.02;75.75;96332.75;4991575;28;20211;-74
2024/01/03 03:28:55;;;;;;;0.60;0.50;;;;;;;9.01;75.73;96321.16;4994702;28;20210;-75
2024/01/03 03:31:23;;;;;;;0.60;0.50;;;;;;;9.00;75.82;96327.59;5008367;28;20227;-74
2024/01/03 03:33:49;;;;;;;0.70;0.50;;;;;;;8.95;76.11;96330.16;4991610;28;20214;-75
2024/01/03 03:36:16;;;;;;;0.60;0.50;;;;;;;9.01;76.08;96328.41;4993516;28;20286;-75
2024/01/03 03:38:42;;;;;;;1.10;0.60;;;;;;;8.98;76.47;96334.28;5008768;28;20286;-75
2024/01/03 03:41:11;;;;;;;1.30;0.60;;;;;;;8.90;77.27;96345.41;4993432;28;20624;-75
2024/01/03 03:43:39;;;;;;;1.33;1.00;;;;;;;8.88;77.57;96342.94;4993337;28;20573;-75
2024/01/03 03:46:06;;;;;;;0.70;0.60;;;;;;;8.87;78.05;96345.88;5001671;28;20211;-75
2024/01/03 03:48:34;;;;;;;0.82;0.50;;;;;;;8.86;78.27;96342.34;4993088;28;20654;-75
2024/01/03 03:51:01;;;;;;;0.60;0.50;;;;;;;8.84;78.23;96335.53;4993179;28;20227;-74
2024/01/03 03:53:28;;;;;;;0.82;0.70;;;;;;;8.82;78.33;96334.97;4992595;28;20207;-74
2024/01/03 03:55:55;;;;;;;1.75;0.70;;;;;;;8.66;79.16;96334.59;4994231;28;20214;-74
2024/01/03 03:58:21;;;;;;;1.48;0.60;;;;;;;8.80;78.52;96339.75;4991618;28;20221;-75
2024/01/03 04:00:48;;;;;;;0.80;0.50;;;;;;;8.76;78.38;96344.81;4992165;28;20205;-75
2024/01/03 04:03:14;;;;;;;1.48;0.70;;;;;;;8.75;77.85;96348.56;4992823;28;20218;-75
2024/01/03 04:05:42;;;;;;;1.17;0.80;;;;;;;8.82;78.10;96348.44;4992103;28;20200;-74
2024/01/03 04:08:09;;;;;;;0.65;0.65;;;;;;;8.82;77.27;96345.75;4992953;28;20210;-75
2024/01/03 04:10:36;;;;;;;1.48;0.60;;;;;;;8.77;76.65;96363.44;4987154;28;20227;-75
2024/01/03 04:13:02;;;;;;;1.38;0.60;;;;;;;8.89;75.29;96365.34;4992246;28;20584;-74
2024/01/03 04:15:29;;;;;;;2.13;0.93;;;;;;;9.04;73.57;96355.75;4993393;28;20290;-74
2024/01/03 04:17:56;;;;;;;1.80;0.90;;;;;;;9.15;72.17;96370.28;4993263;28;20262;-75
2024/01/03 04:20:22;;;;;;;3.38;0.80;;;;;;;9.11;71.61;96369.09;4985965;28;20211;-74
2024/01/03 04:22:50;;;;;;;1.73;0.80;;;;;;;9.19;70.88;96366.06;4990704;28;20573;-75
2024/01/03 04:25:17;;;;;;;1.85;0.85;;;;;;;9.26;69.74;96361.38;4991082;28;20290;-75
2024/01/03 04:27:43;;;;;;;2.40;0.90;;;;;;;9.28;68.48;96359.28;5001416;28;20632;-74
2024/01/03 04:30:10;;;;;;;1.55;0.90;;;;;;;9.27;67.28;96365.72;4992633;28;20203;-74
2024/01/03 04:32:37;;;;;;;1.77;0.85;;;;;;;9.30;66.67;96365.25;4991552;28;20199;-75
2024/01/03 04:35:04;;;;;;;3.60;1.00;;;;;;;9.45;65.96;96362.06;4993197;28;20221;-75
2024/01/03 04:37:32;;;;;;;3.78;0.93;;;;;;;9.50;64.96;96374.84;4990621;28;20735;-75
2024/01/03 04:40:00;;;;;;;3.08;1.50;;;;;;;9.58;64.52;96371.81;4990757;28;20278;-75
2024/01/03 04:42:26;;;;;;;2.33;0.70;;;;;;;9.49;64.80;96375.91;4991132;28;20286;-74
2024/01/03 04:44:54;;;;;;;2.60;1.17;;;;;;;9.54;64.47;96379.56;4993177;28;20211;-74
2024/01/03 04:47:21;;;;;;;4.50;1.30;;;;;;;9.55;64.38;96374.97;4992227;28;20203;-74
2024/01/03 04:49:48;;;;;;;3.65;1.20;;;;;;;9.51;64.49;96365.69;5007302;28;20210;-75
2024/01/03 04:52:14;;;;;;;2.78;1.00;;;;;;;9.51;64.39;96374.63;4991197;28;20223;-75
2024/01/03 04:54:41;;;;;;;3.42;1.10;;;;;;;9.58;64.21;96363.69;4999843;28;20613;-75
2024/01/03 04:57:09;;;;;;;4.00;1.02;;;;;;;9.53;64.27;96393.28;4992619;28;20207;-75
2024/01/03 04:59:35;;;;;;;3.35;1.08;;;;;;;9.56;64.06;96360.41;4992877;28;20203;-75
2024/01/03 05:02:02;;;;;;;2.67;1.05;;;;;;;9.61;64.33;96364.06;4990231;28;20748;-75
2024/01/03 05:04:28;;;;;;;4.55;1.38;;;;;;;9.60;65.09;96359.69;4986838;28;20641;-75
2024/01/03 05:06:55;;;;;;;2.95;1.23;;;;;;;9.55;66.28;96383.06;4991694;28;20205;-75
2024/01/03 05:09:21;;;;;;;3.03;1.02;;;;;;;9.62;65.37;96341.38;5024243;28;20537;-75
2024/01/03 05:11:48;;;;;;;3.67;1.23;;;;;;;9.59;66.29;96381.53;4991099;28;20584;-75
2024/01/03 05:14:16;;;;;;;4.70;1.50;;;;;;;9.58;66.74;96377.19;4992479;28;20313;-75
2024/01/03 05:16:43;;;;;;;3.15;1.17;;;;;;;9.48;67.46;96391.28;4989973;28;20203;-75
2024/01/03 05:19:09;;;;;;;1.73;0.95;;;;;;;9.41;68.05;96377.94;4991294;28;20229;-75
2024/01/03 05:21:36;;;;;;;2.08;1.17;;;;;;;9.27;68.62;96383.78;4990815;28;20205;-75
2024/01/03 05:24:02;;;;;;;3.35;1.17;;;;;;;9.27;68.91;96381.91;4991093;28;20195;-75
2024/01/03 05:26:29;;;;;;;3.58;1.27;;;;;;;9.26;68.82;96377.56;4991555;28;20294;-75
2024/01/03 05:28:55;;;;;;;6.10;1.40;;;;;;;9.32;67.61;96383.91;4991224;28;20596;-75
2024/01/03 05:31:23;;;;;;;5.88;1.40;;;;;;;9.33;66.74;96386.38;4990476;28;20237;-74
2024/01/03 05:33:50;;;;;;;3.60;1.10;;;;;;;9.35;66.56;96376.19;4989751;28;20302;-75
2024/01/03 05:36:16;;;;;;;3.85;1.13;;;;;;;9.43;65.38;96383.06;4988780;28;20215;-75
2024/01/03 05:38:43;;;;;;;3.75;1.23;;;;;;;9.47;65.45;96375.31;4992095;28;20203;-75
2024/01/03 05:41:11;;;;;;;4.65;1.50;;;;;;;9.41;64.83;96372.53;4991681;28;20683;-76
2024/01/03 05:43:37;;;;;;;1.92;1.08;;;;;;;9.50;64.52;96375.69;4985305;28;20241;-75
2024/01/03 05:46:04;;;;;;;5.13;1.30;;;;;;;9.59;64.74;96370.75;4991777;28;20199;-75
2024/01/03 05:48:32;;;;;;;3.15;1.00;;;;;;;9.58;64.29;96379.91;4998583;28;20214;-75
2024/01/03 05:50:58;;;;;;;6.90;1.58;;;;;;;9.56;64.69;96377.44;4990368;28;20219;-76
2024/01/03 05:53:25;;;;;;;3.65;1.20;;;;;;;9.59;64.28;96365.34;4987559;28;20225;-73
2024/01/03 05:55:51;;;;;;;3.67;1.30;;;;;;;9.69;64.09;96392.59;4990085;28;20203;-71
2024/01/03 05:58:18;;;;;;;3.03;1.10;;;;;;;9.75;63.84;96386.19;4991191;28;20573;-73
2024/01/03 06:00:44;;;;;;;3.25;1.10;;;;;;;9.66;64.30;96393.06;4989889;28;20218;-72
2024/01/03 06:03:11;;;;;;;4.75;1.20;;;;;;;9.69;64.01;96379.91;4991312;28;20294;-72
2024/01/03 06:05:39;;;;;;;3.10;1.25;;;;;;;9.68;63.97;96385.53;4989816;28;20217;-72
2024/01/03 06:08:07;;;;;;;2.47;1.15;;;;;;;9.63;64.50;96396.22;4981455;28;20665;-80
2024/01/03 06:10:34;;;;;;;1.58;0.90;;;;;;;9.62;64.80;96399.97;4988076;28;20298;-81
2024/01/03 06:13:00;;;;;;;2.83;1.17;;;;;;;9.62;64.69;96397.28;4991207;28;20294;-82
2024/01/03 06:15:27;;;;;;;2.25;1.23;;;;;;;9.67;64.81;96402.81;4982228;28;20214;-81
2024/01/03 06:17:53;;;;;;;3.75;1.20;;;;;;;9.68;64.66;96396.34;4994573;28;20207;-81
2024/01/03 06:20:20;;;;;;;3.67;1.08;;;;;;;9.63;65.08;96410.56;4986341;28;20203;-81
2024/01/03 06:22:49;;;;;;;3.30;1.20;;;;;;;9.58;65.91;96407.72;4970566;28;20213;-80
2024/01/03 06:25:16;;;;;;;4.47;1.35;;;;;;;9.52;66.26;96408.66;4989094;28;20290;-75
2024/01/03 06:27:42;;;;;;;3.20;1.42;;;;;;;9.53;66.88;96414.91;4989297;28;20294;-74
2024/01/03 06:30:09;;;;;;;1.35;0.90;;;;;;;9.46;67.58;96422.28;4988209;28;20199;-75
2024/01/03 06:32:36;;;;;;;5.40;1.30;;;;;;;9.37;68.67;96408.34;4989791;28;20222;-77
2024/01/03 06:35:03;;;;;;;1.20;0.80;;;;;;;9.33;69.10;96420.66;4988271;28;20235;-75
2024/01/03 06:37:29;;;;;;;2.13;0.98;;;;;;;9.31;69.30;96407.41;4987662;28;20222;-75
2024/01/03 06:39:58;;;;;;;2.05;1.25;;;;;;;9.26;69.73;96393.78;4988723;28;20201;-74
2024/01/03 06:42:24;;;;;;;1.55;0.70;;;;;;;9.23;70.35;96388.03;4989331;28;20209;-74
2024/01/03 06:44:53;;;;;;;0.80;0.80;;;;;;;9.14;70.96;96392.94;4988965;28;20231;-75
2024/01/03 06:47:20;;;;;;;2.25;1.40;;;;;;;9.08;71.21;96402.81;4988722;28;20200;-75
2024/01/03 06:49:46;;;;;;;1.48;0.60;;;;;;;9.09;71.73;96414.44;4987983;28;20563;-74
2024/01/03 06:52:13;;;;;;;2.95;1.23;;;;;;;9.03;72.26;96396.47;4988557;28;20827;-74
2024/01/03 06:54:39;;;;;;;2.65;0.90;;;;;;;8.93;72.66;96413.22;4989808;28;20203;-74
2024/01/03 06:57:07;;;;;;;2.33;0.90;;;;;;;8.97;73.12;96402.78;4987078;28;20225;-74
2024/01/03 06:59:35;;;;;;;2.50;0.90;;;;;;;8.93;73.62;96399.72;4989610;28;20269;-75
2024/01/03 07:02:01;;;;;;;3.67;1.10;;;;;;;8.92;74.06;96403.47;4986363;28;20195;-73
2024/01/03 07:04:28;;;;;;;3.58;1.20;;;;;;;8.92;74.34;96402.66;4990603;28;20290;-74
2024/01/03 07:06:55;;;;;;;2.92;1.00;;;;;;;8.89;74.29;96403.13;4992018;28;20286;-73
2024/01/03 07:09:21;;;;;;;3.00;1.25;;;;;;;9.01;73.80;96403.97;4993915;28;20342;-73
2024/01/03 07:11:49;;;;;;;2.45;1.02;;;;;;;8.95;74.33;96413.00;4991488;28;20260;-75
2024/01/03 07:14:17;;;;;;;3.58;1.30;;;;;;;8.88;74.15;96418.47;4991836;28;20214;-75
2024/01/03 07:16:43;;;;;;;1.67;1.10;;;;;;;8.90;74.00;96413.69;5018253;28;20203;-75
2024/01/03 07:19:10;;;;;;;2.92;1.05;;;;;;;8.97;73.33;96413.56;4984132;28;20195;-73
2024/01/03 07:21:36;;;;;;;1.33;0.88;;;;;;;9.05;72.96;96419.47;4992546;28;20290;-74
2024/01/03 07:24:03;;;;;;;1.60;0.90;;;;;;;9.06;72.79;96420.28;4992984;28;20231;-74
2024/01/03 07:26:30;;;;;;;2.08;1.23;;;;;;;9.12;72.28;96419.34;4990966;28;20679;-74
2024/01/03 07:28:56;;;;;;;2.50;1.02;;;;;;;9.11;72.23;96417.69;4991197;28;20210;-74
2024/01/03 07:31:27;;;;;;;2.22;0.90;;;;;;;9.16;71.52;96417.81;4987512;28;20199;-74
2024/01/03 07:33:53;;;;;;;2.50;0.98;;;;;;;9.19;71.67;96422.75;4990852;28;20201;-74
2024/01/03 07:36:20;;;;;;;2.95;0.82;;;;;;;9.22;71.34;96429.56;4982286;28;20202;-74
2024/01/03 07:38:47;;;;;;;2.28;1.00;;;;;;;9.24;71.14;96427.44;4989257;28;20207;-74
2024/01/03 07:41:18;;;;;;;3.03;1.20;;;;;;;9.35;70.79;96423.94;4990188;28;21126;-74
2024/01/03 07:43:44;;;;;;;3.83;1.15;;;;;;;9.46;70.33;96430.38;4992678;28;20653;-74
2024/01/03 07:46:11;;;;;;;4.18;1.10;;;;;;;9.60;69.40;96421.00;4988450;28;20203;-73
2024/01/03 07:48:39;;;;;;;2.90;0.93;;;;;;;9.65;69.58;96413.03;4989886;28;20199;-75
2024/01/03 07:51:05;;;;;;;3.55;1.10;;;;;;;9.54;69.64;96420.06;4991767;28;20214;-74
2024/01/03 07:53:32;;;;;;;2.63;1.05;;;;;;;9.56;69.47;96419.81;4992773;28;20227;-74
2024/01/03 07:56:01;;;;;;;2.70;0.98;;;;;;;9.54;69.48;96427.34;4990592;28;20268;-78
2024/01/03 07:58:28;;;;;;;3.60;1.05;;;;;;;9.67;69.21;96417.13;5008383;28;20716;-75
2024/01/03 08:00:54;;;;;;;1.20;0.75;;;;;;;9.63;69.44;96415.13;4991878;28;20199;-70
2024/01/03 08:03:21;;;;;;;2.35;0.90;;;;;;;9.60;69.61;96407.50;4989780;28;20191;-70
2024/01/03 08:05:49;;;;;;;1.10;0.70;;;;;;;9.65;69.59;96402.22;4990487;28;20286;-75
2024/01/03 08:08:15;;;;;;;3.50;1.27;;;;;;;9.66;69.67;96410.09;4990278;28;20218;-75
2024/01/03 08:10:42;;;;;;;5.55;1.20;;;;;;;9.64;69.89;96422.19;4983052;28;20207;-73
2024/01/03 08:13:08;;;;;;;2.70;1.05;;;;;;;9.71;69.05;96410.19;4985186;28;20278;-73
2024/01/03 08:15:35;;;;;;;1.20;0.90;;;;;;;9.84;69.27;96408.28;4991443;28;20209;-76
2024/01/03 08:18:01;;;;;;;3.22;1.08;;;;;;;9.81;69.14;96401.47;4989227;28;20237;-72
2024/01/03 08:20:28;;;;;;;1.73;0.90;;;;;;;9.83;69.06;96399.34;4989562;28;20206;-72
2024/01/03 08:22:56;;;;;;;2.95;1.10;;;;;;;9.87;68.92;96395.13;5020663;28;20560;-74
2024/01/03 08:25:23;;;;;;;2.08;0.98;;;;;;;9.86;69.04;96398.06;4991776;28;20215;-71
2024/01/03 08:27:49;;;;;;;1.80;0.90;;;;;;;9.89;69.19;96387.59;4985351;28;20202;-74
2024/01/03 08:30:16;;;;;;;1.35;0.70;;;;;;;9.99;68.94;96398.63;4988635;28;20222;-76
2024/01/03 08:32:43;;;;;;;2.13;1.10;;;;;;;9.98;68.70;96402.38;4999071;28;20221;-76
2024/01/03 08:35:10;;;;;;;1.83;1.00;;;;;;;10.08;68.42;96375.56;4990957;28;20234;-76
2024/01/03 08:37:36;;;;;;;3.15;1.05;;;;;;;10.10;68.54;96364.50;4987554;28;20262;-75
2024/01/03 08:40:05;;;;;;;1.52;0.80;;;;;;;10.15;68.00;96390.81;4989202;28;20203;-76
2024/01/03 08:42:32;;;;;;;2.38;1.00;;;;;;;10.19;67.59;96364.94;4986125;28;20203;-76
2024/01/03 08:44:59;;;;;;;2.70;1.10;;;;;;;10.24;67.48;96378.59;4987326;28;20211;-76
2024/01/03 08:47:25;;;;;;;1.48;1.02;;;;;;;10.32;67.15;96380.91;4990982;28;20705;-75
2024/01/03 08:49:52;;;;;;;1.98;0.93;;;;;;;10.28;67.67;96375.19;4990360;28;20200;-76
2024/01/03 08:52:18;;;;;;;1.60;1.00;;;;;;;10.22;68.30;96370.72;4990890;28;21012;-76
2024/01/03 08:54:45;;;;;;;5.05;2.00;;;;;;;10.17;68.97;96383.28;4987710;28;20207;-76
2024/01/03 08:57:13;;;;;;;2.15;0.88;;;;;;;10.16;69.57;96387.88;4990001;28;20191;-76
2024/01/03 08:59:39;;;;;;;1.45;1.00;;;;;;;10.31;68.83;96384.69;4995550;28;20632;-76
2024/01/03 09:02:06;;;;;;;3.17;1.10;;;;;;;10.64;68.34;96406.41;4988770;28;20198;-75
2024/01/03 09:04:32;;;;;;;2.60;0.90;;;;;;;10.49;69.06;96413.41;4989455;28;20286;-76
2024/01/03 09:06:59;;;;;;;1.65;1.00;;;;;;;10.66;68.65;96377.22;4988548;28;20207;-75
2024/01/03 09:09:25;;;;;;;2.05;0.90;;;;;;;10.86;68.62;96386.75;4986568;28;20562;-76
2024/01/03 09:11:52;;;;;;;3.55;1.10;;;;;;;11.15;67.10;96391.03;4985564;28;20232;-77
2024/01/03 09:14:20;;;;;;;3.28;1.02;;;;;;;11.00;67.06;96372.66;4982603;28;20769;-76
2024/01/03 09:16:47;;;;;;;2.20;1.33;;;;;;;11.07;66.81;96383.31;4990464;28;20211;-77
2024/01/03 09:19:14;;;;;;;1.27;0.60;;;;;;;11.06;66.71;96400.63;4983953;28;20214;-77
2024/01/03 09:21:45;;;;;;;2.28;0.90;;;;;;;10.84;67.61;96426.78;5000211;28;21294;-78
2024/01/03 09:24:11;;;;;;;2.20;1.10;;;;;;;11.17;66.92;96391.59;4977113;28;20211;-75
2024/01/03 09:26:38;;;;;;;1.10;0.80;;;;;;;11.53;65.45;96394.88;4980088;28;20576;-74
2024/01/03 09:29:05;;;;;;;2.53;1.10;;;;;;;11.61;65.14;96405.28;4983834;28;20199;-75
2024/01/03 09:31:34;;;;;;;1.27;0.70;;;;;;;11.76;65.13;96397.34;4984883;28;20199;-74
2024/01/03 09:34:00;;;;;;;2.73;0.80;;;;;;;11.84;64.40;96407.81;4975880;28;20234;-74
2024/01/03 09:36:27;;;;;;;1.30;0.73;;;;;;;11.26;66.20;96414.50;4979168;28;20993;-75
2024/01/03 09:38:53;;;;;;;1.20;0.70;;;;;;;11.02;67.41;96413.03;4985053;28;21249;-75
2024/01/03 09:41:20;;;;;;;2.28;0.80;;;;;;;10.77;68.15;96411.50;4979088;28;20665;-75
2024/01/03 09:43:47;;;;;;;1.90;0.80;;;;;;;10.65;69.12;96429.69;4978675;28;20223;-74
2024/01/03 09:46:13;;;;;;;1.20;0.90;;;;;;;10.44;70.46;96454.69;4982522;28;20345;-74
2024/01/03 09:48:42;;;;;;;2.92;0.80;;;;;;;10.33;71.41;96429.34;4980889;28;20290;-75
2024/01/03 09:51:08;;;;;;;1.90;0.82;;;;;;;10.24;72.34;96432.66;4978815;28;20206;-75
2024/01/03 09:53:35;;;;;;;3.25;0.90;;;;;;;10.22;72.20;96438.31;4976908;28;20232;-75
2024/01/03 09:56:02;;;;;;;1.80;0.70;;;;;;;10.56;71.53;96435.72;4984654;28;20689;-73
2024/01/03 09:58:29;;;;;;;2.30;0.80;;;;;;;11.03;70.22;96420.09;4981558;28;20192;-75
2024/01/03 10:00:55;;;;;;;1.40;0.70;;;;;;;10.83;70.58;96436.78;4978588;28;20223;-75
2024/01/03 10:03:22;;;;;;;1.05;0.60;;;;;;;11.18;69.27;96423.03;4981743;28;20548;-75
2024/01/03 10:06:09;;;;;;;0.95;0.60;;;;;;;11.14;68.89;96437.31;4981559;28;20213;-74
2024/01/03 10:08:36;;;;;;;2.15;0.80;;;;;;;10.91;69.63;96430.16;4985986;28;20285;-75
2024/01/03 10:11:19;;;;;;;0.80;0.60;;;;;;;10.74;70.86;96438.22;4984034;28;20246;-74
2024/01/03 10:13:45;;;;;;;0.98;0.60;;;;;;;10.89;70.99;96440.41;4984709;28;20215;-75
2024/01/03 10:16:12;;;;;;;2.30;1.33;;;;;;;10.93;69.79;96431.56;4984720;28;20552;-75
2024/01/03 10:18:40;;;;;;;1.00;0.60;;;;;;;10.83;70.31;96444.06;4976808;28;20754;-76
2024/01/03 10:21:23;;;;;;;0.90;0.60;;;;;;;10.25;73.36;96461.34;4977163;28;20642;-75
2024/01/03 10:24:01;;;;;;;1.15;0.80;;;;;;;10.02;75.26;96456.78;4982283;28;20206;-75
2024/01/03 10:26:27;;;;;;;1.67;0.70;;;;;;;9.92;76.07;96460.09;4982795;28;20286;-75
2024/01/03 10:29:08;;;;;;;2.00;0.90;;;;;;;9.61;77.17;96447.78;4986065;28;20203;-75
2024/01/03 10:31:37;;;;;;;1.00;0.60;;;;;;;9.58;79.27;96442.84;4986767;28;20203;-74
2024/01/03 10:34:04;;;;;;;1.10;0.60;;;;;;;9.72;77.96;96448.84;4976140;28;20302;-74
2024/01/03 10:36:35;;;;;;;1.55;0.90;;;;;;;9.73;78.41;96439.69;4998174;28;20700;-74
2024/01/03 10:39:03;;;;;;;0.80;0.60;;;;;;;10.15;76.47;96444.88;4981130;28;20565;-73
2024/01/03 10:41:30;;;;;;;0.80;0.70;;;;;;;10.56;74.87;96441.97;4996839;28;20289;-74
2024/01/03 10:43:58;;;;;;;2.45;1.10;;;;;;;10.48;74.38;96436.94;4959302;28;20196;-74
2024/01/03 10:46:26;;;;;;;1.80;0.82;;;;;;;10.52;74.76;96419.16;4981568;28;20205;-74
2024/01/03 10:48:53;;;;;;;1.35;0.70;;;;;;;10.52;73.14;96440.81;4983295;28;20195;-77
2024/01/03 10:51:23;;;;;;;0.90;0.70;;;;;;;10.46;73.43;96427.41;4986038;28;20203;-74
2024/01/03 10:53:52;;;;;;;1.85;0.90;;;;;;;10.32;74.38;96451.22;5013328;28;20707;-75
2024/01/03 10:56:18;;;;;;;1.13;0.70;;;;;;;10.18;74.35;96461.44;4986197;28;20202;-75
2024/01/03 10:58:45;;;;;;;0.90;0.70;;;;;;;10.06;75.06;96442.56;4981919;28;20219;-75
2024/01/03 11:01:16;;;;;;;1.35;0.60;;;;;;;9.92;74.48;96435.75;4996424;28;20219;-74
2024/01/03 11:03:50;;;;;;;1.63;0.88;;;;;;;10.05;74.34;96462.53;4981774;28;20202;-75
2024/01/03 11:06:19;;;;;;;1.80;0.90;;;;;;;10.08;74.68;96464.75;4985025;28;20202;-73
2024/01/03 11:08:51;;;;;;;1.95;0.88;;;;;;;10.17;74.91;96457.09;4984785;28;20265;-74
2024/01/03 11:11:31;;;;;;;0.70;0.60;;;;;;;10.52;72.78;96461.63;4994224;28;20701;-75
2024/01/03 11:13:58;;;;;;;1.23;0.70;;;;;;;10.56;72.31;96458.19;4984973;28;20732;-75
2024/01/03 11:16:36;;;;;;;1.00;0.60;;;;;;;10.45;72.61;96467.16;4985267;28;20207;-74
2024/01/03 11:19:04;;;;;;;1.50;0.60;;;;;;;10.60;72.11;96453.13;4985761;28;20206;-75
2024/01/03 11:21:43;;;;;;;0.80;0.60;;;;;;;10.53;72.13;96447.84;4985732;28;20282;-74
2024/01/03 11:24:54;;;;;;;1.25;0.80;;;;;;;10.58;71.11;96455.25;4980987;28;20237;-76
2024/01/03 11:27:23;;;;;;;1.30;0.80;;;;;;;10.62;71.12;96441.00;4983710;28;20270;-74
2024/01/03 11:29:51;;;;;;;1.23;0.80;;;;;;;10.92;69.68;96467.81;4984939;28;20297;-75
2024/01/03 11:32:27;;;;;;;1.70;0.80;;;;;;;11.79;66.56;96434.84;4983380;28;20262;-75
2024/01/03 11:34:54;;;;;;;0.83;0.60;;;;;;;12.42;64.52;96438.91;4964833;28;20696;-74
2024/01/03 11:37:35;;;;;;;1.60;0.60;;;;;;;12.39;63.86;96425.84;5017374;28;21210;-74
2024/01/03 11:40:03;;;;;;;1.57;0.80;;;;;;;12.64;62.93;96414.50;4982504;28;20642;-75
2024/01/03 11:42:32;;;;;;;1.50;0.70;;;;;;;12.68;62.17;96402.84;4996208;28;20709;-75